Time;durP1;ratioP1;P1;durP2;ratioP2;P2;SDS_P1;SDS_P2;PMS_P1;PMS_P2;Temp;Humidity;BMP_temperature;BMP_pressure;BME280_temperature;BME280_humidity;BME280_pressure;Samples;Min_cycle;Max_cycle;Signal;HPM_P1;HPM_P2
2021/05/28 00:01:57;;;;;;;13.90;8.15;;;;;;;8.58;82.01;100000.47;5053589;28;20387;-60
2021/05/28 00:04:22;;;;;;;16.40;8.85;;;;;;;8.46;82.40;100004.00;5035960;28;20013;-60
2021/05/28 00:06:48;;;;;;;13.60;8.43;;;;;;;8.35;83.20;100003.59;5053492;28;20486;-60
2021/05/28 00:09:13;;;;;;;20.92;8.80;;;;;;;8.33;83.67;100002.16;5053699;28;20032;-60
2021/05/28 00:11:39;;;;;;;15.90;9.75;;;;;;;8.27;83.64;100005.69;5053443;28;20053;-60
2021/05/28 00:14:04;;;;;;;15.52;9.20;;;;;;;8.20;84.11;99997.66;5053721;28;20021;-59
2021/05/28 00:16:30;;;;;;;15.48;9.10;;;;;;;8.17;84.50;100001.56;5051829;28;20052;-60
2021/05/28 00:18:55;;;;;;;19.95;8.82;;;;;;;8.14;84.07;99996.66;5053814;28;20412;-60
2021/05/28 00:21:21;;;;;;;15.30;8.70;;;;;;;8.21;84.12;99999.28;5053164;28;20483;-59
2021/05/28 00:23:46;;;;;;;15.10;9.00;;;;;;;8.15;84.94;99989.47;5053607;28;20021;-59
2021/05/28 00:26:12;;;;;;;15.65;8.68;;;;;;;8.18;84.30;99986.38;5053254;28;20495;-59
2021/05/28 00:28:37;;;;;;;18.67;10.05;;;;;;;8.08;84.55;99988.63;5053333;28;20079;-59
2021/05/28 00:31:03;;;;;;;16.23;8.98;;;;;;;7.99;84.76;99990.72;5052818;28;20052;-59
2021/05/28 00:33:29;;;;;;;17.30;8.90;;;;;;;7.93;84.95;99992.34;5053220;28;20032;-60
2021/05/28 00:35:54;;;;;;;19.25;9.57;;;;;;;7.88;85.24;99994.81;5052667;28;20047;-59
2021/05/28 00:38:20;;;;;;;17.70;8.93;;;;;;;7.87;85.98;99993.19;5053223;28;20033;-59
2021/05/28 00:40:45;;;;;;;14.18;8.70;;;;;;;7.88;85.80;99994.81;5034992;28;20094;-59
2021/05/28 00:43:10;;;;;;;19.48;9.48;;;;;;;7.83;85.17;99991.94;5053136;28;20029;-60
2021/05/28 00:45:36;;;;;;;17.10;9.68;;;;;;;7.80;85.86;99997.69;5052528;28;20032;-59
2021/05/28 00:48:01;;;;;;;14.43;9.63;;;;;;;7.86;85.44;99996.88;5053079;28;20021;-59
2021/05/28 00:50:29;;;;;;;17.20;9.80;;;;;;;7.92;84.84;99995.25;5052790;28;20118;-59
2021/05/28 00:52:56;;;;;;;15.70;10.02;;;;;;;7.94;84.50;99996.66;5053115;28;20057;-59
2021/05/28 00:55:22;;;;;;;20.83;9.38;;;;;;;7.98;84.53;99999.75;5034824;28;20091;-59
2021/05/28 00:57:47;;;;;;;18.27;9.20;;;;;;;8.06;83.51;99998.69;5035291;28;20021;-59
2021/05/28 01:00:13;;;;;;;14.95;9.07;;;;;;;8.17;82.69;99998.09;5052428;28;20036;-59
2021/05/28 01:02:38;;;;;;;16.90;9.15;;;;;;;8.12;83.03;99998.72;5053355;28;20433;-59
2021/05/28 01:05:04;;;;;;;17.10;9.65;;;;;;;8.20;82.42;100000.34;5052214;28;20032;-60
2021/05/28 01:07:30;;;;;;;20.45;9.18;;;;;;;8.25;82.14;99994.38;5052983;28;20028;-60
2021/05/28 01:09:55;;;;;;;13.40;8.57;;;;;;;8.45;81.17;100008.53;5034929;28;20478;-59
2021/05/28 01:12:20;;;;;;;21.17;8.68;;;;;;;8.31;82.16;99999.72;5052246;28;20033;-59
2021/05/28 01:14:49;;;;;;;16.88;9.30;;;;;;;8.28;82.69;100004.63;5052614;28;20033;-59
2021/05/28 01:17:15;;;;;;;14.82;8.95;;;;;;;8.31;82.46;100010.41;5051955;28;20056;-59
2021/05/28 01:19:40;;;;;;;15.55;9.45;;;;;;;8.37;82.88;100006.06;5052550;28;20025;-59
2021/05/28 01:22:06;;;;;;;14.48;8.70;;;;;;;8.38;82.96;100005.84;5052093;28;20037;-59
2021/05/28 01:24:32;;;;;;;15.20;8.50;;;;;;;8.42;81.98;100012.44;5052616;28;20070;-60
2021/05/28 01:26:57;;;;;;;20.27;9.98;;;;;;;8.44;82.30;100012.25;5052044;28;20395;-60
2021/05/28 01:29:23;;;;;;;20.75;9.73;;;;;;;8.43;82.88;100008.72;5051988;28;20037;-59
2021/05/28 01:31:48;;;;;;;19.42;9.50;;;;;;;8.41;82.43;100015.31;5034311;28;20037;-59
2021/05/28 01:34:14;;;;;;;17.98;10.02;;;;;;;8.45;83.15;100015.72;5052584;28;20021;-60
2021/05/28 01:36:39;;;;;;;20.88;10.43;;;;;;;8.41;83.41;100015.31;5051537;28;20115;-60
2021/05/28 01:39:05;;;;;;;21.88;10.20;;;;;;;8.37;83.60;100014.06;5052573;28;20037;-59
2021/05/28 01:41:30;;;;;;;24.70;11.10;;;;;;;8.38;83.52;100015.69;5051886;28;20029;-59
2021/05/28 01:43:56;;;;;;;23.67;11.15;;;;;;;8.31;83.75;100014.88;5052511;28;20029;-59
2021/05/28 01:46:23;;;;;;;23.35;11.40;;;;;;;8.36;84.05;100018.59;5052194;28;20103;-59
2021/05/28 01:48:48;;;;;;;17.75;10.18;;;;;;;8.36;84.13;100023.94;5052289;28;20033;-59
2021/05/28 01:51:14;;;;;;;25.27;11.07;;;;;;;8.39;83.75;100025.38;5051735;28;20079;-59
2021/05/28 01:53:40;;;;;;;16.38;10.15;;;;;;;8.38;84.01;100024.53;5052552;28;20025;-59
2021/05/28 01:56:06;;;;;;;18.85;10.75;;;;;;;8.38;84.07;100021.03;5033921;28;20537;-59
2021/05/28 01:58:31;;;;;;;19.75;10.65;;;;;;;8.30;84.96;100019.41;5052173;28;20033;-59
2021/05/28 02:00:57;;;;;;;18.52;11.05;;;;;;;8.35;84.36;100024.94;5034184;28;20041;-59
2021/05/28 02:03:23;;;;;;;19.38;11.02;;;;;;;8.40;84.41;100025.19;5052559;28;20052;-59
2021/05/28 02:05:48;;;;;;;16.30;10.75;;;;;;;8.40;83.95;100017.16;5034107;28;20518;-59
2021/05/28 02:08:14;;;;;;;23.23;12.07;;;;;;;8.41;83.61;100026.00;5034665;28;20044;-59
2021/05/28 02:10:40;;;;;;;18.77;11.93;;;;;;;8.37;84.01;100025.56;5051884;28;20376;-59
2021/05/28 02:13:05;;;;;;;24.58;11.27;;;;;;;8.43;83.80;100023.94;5052185;28;20375;-61
2021/05/28 02:15:30;;;;;;;21.08;12.40;;;;;;;8.36;84.26;100023.94;5051667;28;20098;-59
2021/05/28 02:17:56;;;;;;;24.23;12.27;;;;;;;8.34;84.50;100025.19;5051757;28;20045;-60
2021/05/28 02:20:22;;;;;;;22.80;12.30;;;;;;;8.33;84.63;100029.69;5033945;28;20041;-59
2021/05/28 02:22:47;;;;;;;26.35;13.75;;;;;;;8.33;84.78;100039.56;5052083;28;20037;-59
2021/05/28 02:25:15;;;;;;;21.35;14.38;;;;;;;8.40;84.54;100032.38;5051596;28;20525;-59
2021/05/28 02:27:42;;;;;;;23.52;13.63;;;;;;;8.38;84.63;100037.06;5051985;28;20104;-59
2021/05/28 02:30:08;;;;;;;28.23;14.82;;;;;;;8.36;85.12;100034.63;5051742;28;20044;-60
2021/05/28 02:32:33;;;;;;;30.13;15.02;;;;;;;8.48;84.37;100042.03;5052088;28;20017;-59
2021/05/28 02:34:59;;;;;;;26.27;13.98;;;;;;;8.45;84.50;100040.59;5051818;28;20021;-60
2021/05/28 02:37:24;;;;;;;30.10;14.82;;;;;;;8.43;84.50;100040.78;5051532;28;20044;-59
2021/05/28 02:39:50;;;;;;;28.35;14.82;;;;;;;8.40;85.00;100043.88;5052532;28;20029;-59
2021/05/28 02:42:15;;;;;;;25.63;16.15;;;;;;;8.40;84.54;100049.22;5054979;28;20044;-59
2021/05/28 02:44:41;;;;;;;26.70;15.55;;;;;;;8.50;84.01;100045.31;5055687;28;20025;-60
2021/05/28 02:47:07;;;;;;;25.23;15.23;;;;;;;8.47;84.65;100043.88;5054927;28;20398;-59
2021/05/28 02:49:32;;;;;;;24.83;15.30;;;;;;;8.46;84.77;100044.88;5055473;28;20410;-60
2021/05/28 02:51:57;;;;;;;27.58;16.02;;;;;;;8.46;84.42;100047.56;5054888;28;20045;-59
2021/05/28 02:54:25;;;;;;;25.90;16.50;;;;;;;8.34;84.58;100044.69;5055371;28;20032;-59
2021/05/28 02:56:50;;;;;;;24.95;14.48;;;;;;;8.33;85.03;100047.56;5054711;28;20115;-59
2021/05/28 02:59:15;;;;;;;34.45;16.17;;;;;;;8.29;84.99;100049.84;5037375;28;20450;-59
2021/05/28 03:01:41;;;;;;;24.83;15.23;;;;;;;8.28;85.57;100050.03;5054745;28;20030;-59
2021/05/28 03:04:06;;;;;;;26.45;15.38;;;;;;;8.32;84.99;100048.59;5055163;28;20467;-59
2021/05/28 03:06:32;;;;;;;22.85;15.13;;;;;;;8.31;85.32;100054.97;5036670;28;20040;-60
2021/05/28 03:08:58;;;;;;;33.58;16.40;;;;;;;8.21;85.73;100052.69;5054913;28;20024;-60
2021/05/28 03:11:23;;;;;;;27.58;16.88;;;;;;;8.15;85.83;100051.69;5054469;28;20084;-59
2021/05/28 03:13:49;;;;;;;27.25;16.00;;;;;;;8.11;86.05;100052.31;5054771;28;20025;-60
2021/05/28 03:16:14;;;;;;;27.02;17.17;;;;;;;8.23;85.74;100045.31;5053906;28;20521;-59
2021/05/28 03:23:53;;;;;;;28.73;17.65;;;;;;;8.19;86.37;100044.09;5037735;28;20540;-60
2021/05/28 03:26:19;;;;;;;30.25;18.20;;;;;;;8.18;86.52;100050.44;5054104;28;20449;-60
2021/05/28 03:28:44;;;;;;;25.52;16.20;;;;;;;8.20;86.79;100051.06;5036498;28;20029;-60
2021/05/28 03:31:09;;;;;;;28.60;17.80;;;;;;;8.20;86.25;100045.72;5051748;28;20030;-59
2021/05/28 03:33:35;;;;;;;29.63;17.75;;;;;;;8.18;86.32;100043.25;5054591;28;20028;-60
2021/05/28 03:36:00;;;;;;;33.22;18.90;;;;;;;8.16;86.19;100047.16;5053945;28;20095;-60
2021/05/28 03:38:26;;;;;;;29.38;17.38;;;;;;;8.19;86.52;100049.44;5054379;28;20025;-60
2021/05/28 03:40:52;;;;;;;29.77;18.08;;;;;;;8.25;86.16;100055.78;5053809;28;20453;-59
2021/05/28 03:43:17;;;;;;;32.13;17.95;;;;;;;8.21;86.32;100052.69;5036568;28;20025;-59
2021/05/28 03:45:43;;;;;;;46.53;18.60;;;;;;;8.31;85.84;100057.63;5053932;28;20037;-60
2021/05/28 03:48:08;;;;;;;31.20;17.77;;;;;;;8.45;85.57;100063.81;5054147;28;20485;-60
2021/05/28 03:50:34;;;;;;;28.80;18.95;;;;;;;8.60;85.32;100056.38;5053541;28;20091;-59
2021/05/28 03:52:59;;;;;;;30.15;17.23;;;;;;;8.70;84.54;100051.41;5054095;28;20032;-60
2021/05/28 03:55:25;;;;;;;29.77;16.98;;;;;;;8.99;83.30;100055.44;5053713;28;20407;-59
2021/05/28 03:57:50;;;;;;;29.98;18.13;;;;;;;8.92;83.12;100054.66;5053992;28;20028;-60
2021/05/28 04:00:16;;;;;;;27.75;17.75;;;;;;;8.72;83.77;100065.41;5053779;28;20037;-60
2021/05/28 04:02:41;;;;;;;32.95;18.63;;;;;;;8.60;84.58;100062.53;5054088;28;20029;-59
2021/05/28 04:05:09;;;;;;;29.25;18.15;;;;;;;8.60;85.04;100072.41;5053459;28;20463;-59
2021/05/28 04:07:34;;;;;;;29.88;19.20;;;;;;;8.63;84.46;100067.47;5053861;28;20554;-59
2021/05/28 04:09:59;;;;;;;30.75;20.30;;;;;;;8.56;85.20;100065.84;5053851;28;20100;-59
2021/05/28 04:12:25;;;;;;;28.98;18.33;;;;;;;8.70;85.10;100062.13;5053338;28;20040;-59
2021/05/28 04:14:50;;;;;;;30.52;19.30;;;;;;;8.69;84.50;100073.84;5053949;28;20079;-60
2021/05/28 04:17:16;;;;;;;33.35;19.27;;;;;;;8.59;84.78;100068.13;5053118;28;20106;-59
2021/05/28 04:19:41;;;;;;;34.25;20.08;;;;;;;8.63;84.80;100074.66;5035874;28;20025;-59
2021/05/28 04:22:06;;;;;;;29.35;18.42;;;;;;;8.78;84.26;100075.25;5053181;28;20103;-59
2021/05/28 04:24:32;;;;;;;32.97;19.92;;;;;;;8.88;83.71;100074.00;5053499;28;20437;-59
2021/05/28 04:26:57;;;;;;;30.58;19.88;;;;;;;9.07;83.28;100079.28;5052990;28;20036;-59
2021/05/28 04:29:23;;;;;;;27.35;18.63;;;;;;;10.52;78.04;100085.75;5052799;28;20037;-59
2021/05/28 04:31:48;;;;;;;28.75;17.73;;;;;;;12.37;70.14;100086.22;5053056;28;20033;-59
2021/05/28 04:34:14;;;;;;;26.63;15.82;;;;;;;13.95;63.83;100092.13;5053889;28;20033;-59
2021/05/28 04:36:40;;;;;;;21.55;15.27;;;;;;;15.46;58.44;100089.41;5034744;28;20099;-59
2021/05/28 04:39:05;;;;;;;22.80;13.77;;;;;;;16.83;53.45;100096.25;5053675;28;20159;-59
2021/05/28 04:41:31;;;;;;;18.00;12.90;;;;;;;17.40;51.10;100090.81;5035249;28;20067;-60
2021/05/28 04:43:56;;;;;;;19.77;12.13;;;;;;;17.29;50.33;100089.13;5053862;28;20021;-60
2021/05/28 04:46:22;;;;;;;19.67;12.73;;;;;;;16.70;51.88;100081.25;5053154;28;20497;-60
2021/05/28 04:48:47;;;;;;;16.73;12.27;;;;;;;16.79;52.40;100094.06;5053576;28;20055;-60
2021/05/28 04:51:14;;;;;;;18.40;11.55;;;;;;;17.17;50.53;100099.38;5053072;28;20063;-60
2021/05/28 04:53:40;;;;;;;17.30;12.25;;;;;;;18.11;48.68;100081.16;5053327;28;20035;-60
2021/05/28 04:56:05;;;;;;;16.23;10.82;;;;;;;17.77;48.68;100084.38;5035285;28;20410;-59
2021/05/28 04:58:31;;;;;;;16.13;11.45;;;;;;;19.03;46.66;100089.16;5053296;28;20049;-59
2021/05/28 05:00:56;;;;;;;19.17;11.10;;;;;;;19.09;45.77;100088.03;5052973;28;20029;-59
2021/05/28 05:03:22;;;;;;;16.65;11.15;;;;;;;17.00;50.37;100097.69;5052515;28;20020;-59
2021/05/28 05:05:47;;;;;;;15.75;10.57;;;;;;;17.21;49.78;100105.91;5052774;28;20094;-59
2021/05/28 05:08:13;;;;;;;15.45;10.30;;;;;;;18.30;47.32;100097.72;5053076;28;20466;-59
2021/05/28 05:10:38;;;;;;;14.63;8.55;;;;;;;18.72;45.49;100104.69;5052951;28;20033;-59
2021/05/28 05:13:11;;;;;;;12.65;9.02;;;;;;;18.37;46.66;100102.84;5053040;28;20473;-59
2021/05/28 05:15:37;;;;;;;16.10;9.73;;;;;;;16.07;52.94;100103.53;5034785;28;20445;-59
2021/05/28 05:18:02;;;;;;;17.13;9.57;;;;;;;17.93;48.25;100109.66;5052696;28;20052;-59
2021/05/28 05:20:28;;;;;;;15.07;8.73;;;;;;;19.21;44.59;100114.09;5052332;28;20062;-59
2021/05/28 05:22:53;;;;;;;20.45;9.27;;;;;;;17.65;47.88;100102.78;5052920;28;20032;-59
2021/05/28 05:25:19;;;;;;;16.23;8.13;;;;;;;18.08;47.09;100106.13;5050873;28;20021;-60
2021/05/28 05:27:44;;;;;;;17.90;8.18;;;;;;;17.97;47.28;100115.31;5035392;28;20120;-60
2021/05/28 05:30:11;;;;;;;16.10;8.35;;;;;;;19.27;43.99;100121.13;5052365;28;20372;-60
2021/05/28 05:32:36;;;;;;;15.60;7.70;;;;;;;17.26;47.50;100119.47;5035224;28;20025;-59
2021/05/28 05:35:02;;;;;;;19.42;8.48;;;;;;;15.38;53.45;100116.88;5051759;28;20455;-59
2021/05/28 05:37:28;;;;;;;13.32;7.57;;;;;;;15.82;53.04;100127.63;5052362;28;20029;-60
2021/05/28 05:39:53;;;;;;;13.63;7.95;;;;;;;15.41;54.27;100127.97;5053137;28;20025;-59
2021/05/28 05:42:18;;;;;;;15.40;9.68;;;;;;;13.92;58.29;100124.94;5017655;28;20060;-58
2021/05/28 05:44:44;;;;;;;14.57;9.25;;;;;;;13.11;61.26;100124.97;5052793;28;20036;-60
2021/05/28 05:47:10;;;;;;;15.98;9.63;;;;;;;12.17;65.29;100124.97;5034247;28;20067;-60
2021/05/28 05:49:36;;;;;;;13.95;9.00;;;;;;;12.21;66.04;100128.84;5052338;28;20432;-60
2021/05/28 05:52:02;;;;;;;13.85;9.18;;;;;;;12.11;66.93;100136.66;5051910;28;20033;-60
2021/05/28 05:54:27;;;;;;;18.67;9.82;;;;;;;11.88;66.45;100134.69;5052320;28;20032;-60
2021/05/28 05:56:52;;;;;;;18.48;10.68;;;;;;;11.02;70.30;100131.22;5051897;28;20041;-60
2021/05/28 05:59:18;;;;;;;20.80;10.07;;;;;;;10.87;69.97;100141.50;5052546;28;20033;-60
2021/05/28 06:01:43;;;;;;;15.90;9.98;;;;;;;10.85;71.11;100133.66;5051899;28;20083;-60
2021/05/28 06:04:09;;;;;;;18.92;10.40;;;;;;;10.93;71.07;100145.97;5052685;28;20028;-59
2021/05/28 06:06:34;;;;;;;18.33;10.50;;;;;;;10.82;70.84;100149.41;5051755;28;20041;-60
2021/05/28 06:09:00;;;;;;;14.90;9.82;;;;;;;10.68;71.81;100148.69;5052620;28;20021;-60
2021/05/28 06:11:25;;;;;;;20.75;10.48;;;;;;;10.94;71.24;100155.66;5034056;28;20044;-60
2021/05/28 06:13:51;;;;;;;17.80;9.68;;;;;;;11.40;68.16;100157.81;5053041;28;20410;-61
2021/05/28 06:16:16;;;;;;;16.65;8.90;;;;;;;14.35;59.12;100161.28;5055582;28;20045;-60
2021/05/28 06:18:42;;;;;;;10.93;7.13;;;;;;;16.76;50.43;100162.22;5056468;28;20459;-60
2021/05/28 06:21:08;;;;;;;11.52;7.90;;;;;;;15.48;55.23;100171.81;5038023;28;20037;-60
2021/05/28 06:23:33;;;;;;;11.57;7.78;;;;;;;19.81;44.09;100172.00;5056493;28;20082;-61
2021/05/28 06:25:59;;;;;;;13.35;7.38;;;;;;;17.17;48.20;100169.81;5037939;28;20053;-61
2021/05/28 06:28:25;;;;;;;15.55;6.75;;;;;;;14.75;56.79;100168.41;5038152;28;20025;-59
2021/05/28 06:30:50;;;;;;;11.98;7.05;;;;;;;16.00;54.18;100169.69;5055360;28;20047;-59
2021/05/28 06:33:15;;;;;;;12.10;7.00;;;;;;;21.14;39.89;100179.09;5055777;28;20029;-59
2021/05/28 06:35:41;;;;;;;11.57;6.60;;;;;;;20.95;40.32;100179.03;5055002;28;20041;-59
2021/05/28 06:38:08;;;;;;;11.70;6.28;;;;;;;21.04;38.67;100185.50;5055747;28;20386;-60
2021/05/28 06:40:34;;;;;;;13.65;5.97;;;;;;;21.13;39.43;100188.38;5055011;28;20106;-59
2021/05/28 06:42:59;;;;;;;14.05;5.68;;;;;;;22.38;37.68;100184.56;5055632;28;20028;-59
2021/05/28 06:45:25;;;;;;;9.27;5.35;;;;;;;22.77;36.23;100184.19;5055155;28;20107;-60
2021/05/28 06:47:50;;;;;;;9.50;5.35;;;;;;;21.73;37.38;100177.84;5055490;28;20029;-59
2021/05/28 06:50:16;;;;;;;8.60;5.57;;;;;;;21.33;39.34;100199.06;5054757;28;20052;-60
2021/05/28 06:52:42;;;;;;;11.50;5.60;;;;;;;22.75;34.97;100199.28;5055552;28;20454;-60
2021/05/28 06:55:08;;;;;;;13.40;5.70;;;;;;;23.19;34.75;100197.97;5054935;28;20021;-60
2021/05/28 06:57:33;;;;;;;11.05;5.68;;;;;;;21.82;37.72;100199.06;5055195;28;20025;-60
2021/05/28 06:59:59;;;;;;;11.52;7.05;;;;;;;21.87;36.49;100204.44;5037356;28;20112;-60
2021/05/28 07:02:26;;;;;;;10.90;7.78;;;;;;;18.71;43.49;100201.63;5054697;28;20034;-60
2021/05/28 07:04:51;;;;;;;11.45;7.30;;;;;;;16.96;48.10;100201.38;5055025;28;20031;-60
2021/05/28 07:07:16;;;;;;;9.15;6.35;;;;;;;17.84;45.72;100203.44;5036658;28;20059;-60
2021/05/28 07:09:42;;;;;;;8.57;5.60;;;;;;;17.63;44.44;100202.53;5055252;28;20021;-59
2021/05/28 07:12:07;;;;;;;10.30;5.53;;;;;;;16.79;47.52;100206.94;5054591;28;20033;-59
2021/05/28 07:14:33;;;;;;;10.88;6.60;;;;;;;15.42;52.30;100201.72;5054828;28;20073;-59
2021/05/28 07:16:58;;;;;;;12.52;6.93;;;;;;;14.57;56.04;100195.63;5054086;28;20049;-59
2021/05/28 07:19:24;;;;;;;10.20;6.03;;;;;;;15.98;52.20;100207.00;5054842;28;20033;-59
2021/05/28 07:21:49;;;;;;;12.32;7.40;;;;;;;20.84;39.74;100213.75;5054517;28;20044;-59
2021/05/28 07:24:14;;;;;;;13.05;9.73;;;;;;;20.96;39.39;100205.19;5054829;28;20021;-59
2021/05/28 07:26:40;;;;;;;8.60;4.90;;;;;;;21.20;37.32;100209.84;5035820;28;20040;-59
2021/05/28 07:29:05;;;;;;;13.98;8.80;;;;;;;22.15;35.00;100205.38;5054582;28;20032;-60
2021/05/28 07:31:31;;;;;;;12.98;8.65;;;;;;;23.68;32.56;100201.88;5054318;28;20041;-60
2021/05/28 07:33:56;;;;;;;12.25;9.18;;;;;;;22.03;35.52;100194.91;5037070;28;20494;-60
2021/05/28 07:36:23;;;;;;;12.88;9.52;;;;;;;21.76;35.95;100187.38;5054171;28;20045;-60
2021/05/28 07:38:49;;;;;;;11.57;4.93;;;;;;;21.14;36.26;100190.00;5054559;28;20033;-60
2021/05/28 07:41:14;;;;;;;12.85;8.73;;;;;;;22.85;32.62;100187.34;5053907;28;20029;-60
2021/05/28 07:43:40;;;;;;;8.38;4.93;;;;;;;21.19;36.85;100181.78;5053962;28;20360;-60
2021/05/28 07:46:06;;;;;;;13.82;8.32;;;;;;;22.37;34.53;100177.50;5053643;28;20155;-60
2021/05/28 07:48:31;;;;;;;13.70;9.70;;;;;;;23.41;32.84;100183.56;5053978;28;20467;-60
2021/05/28 07:50:59;;;;;;;12.45;7.78;;;;;;;21.38;36.54;100189.19;5035704;28;20033;-59
2021/05/28 07:53:26;;;;;;;16.67;12.02;;;;;;;22.04;35.16;100191.09;5053887;28;20111;-60
2021/05/28 07:55:52;;;;;;;11.68;7.47;;;;;;;22.04;35.20;100196.56;5053555;28;20509;-60
2021/05/28 07:58:18;;;;;;;9.73;4.90;;;;;;;22.95;33.41;100185.22;5053979;28;20029;-60
2021/05/28 08:00:43;;;;;;;7.90;4.53;;;;;;;21.28;35.13;100193.66;5053481;28;20040;-60
2021/05/28 08:03:09;;;;;;;8.25;4.10;;;;;;;20.33;39.26;100197.00;5053894;28;20469;-60
2021/05/28 08:05:34;;;;;;;10.50;4.57;;;;;;;21.13;36.12;100202.00;5053612;28;20040;-60
2021/05/28 08:08:00;;;;;;;8.98;4.60;;;;;;;20.95;37.70;100191.84;5054274;28;20056;-60
2021/05/28 08:10:25;;;;;;;8.05;4.43;;;;;;;19.57;40.10;100178.09;5053226;28;20059;-59
2021/05/28 08:12:51;;;;;;;5.50;3.20;;;;;;;20.55;37.46;100193.84;5053920;28;20052;-59
2021/05/28 08:15:18;;;;;;;8.32;3.97;;;;;;;20.20;38.26;100187.56;5053216;28;20017;-59
2021/05/28 08:17:43;;;;;;;7.50;4.13;;;;;;;21.28;37.25;100193.66;5053321;28;20052;-60
2021/05/28 08:20:12;;;;;;;11.43;3.70;;;;;;;21.83;35.88;100189.75;5053480;28;20111;-60
2021/05/28 08:22:37;;;;;;;8.67;3.87;;;;;;;22.85;34.37;100192.81;5053816;28;20033;-59
2021/05/28 08:25:03;;;;;;;7.10;3.50;;;;;;;22.22;35.21;100196.88;5053057;28;20022;-59
2021/05/28 08:27:29;;;;;;;6.60;3.90;;;;;;;20.59;38.58;100184.84;5053599;28;20016;-59
2021/05/28 08:29:54;;;;;;;6.55;3.40;;;;;;;19.76;38.48;100185.63;5053472;28;20025;-59
2021/05/28 08:32:19;;;;;;;8.55;3.70;;;;;;;20.13;37.31;100193.31;5052803;28;20502;-60
2021/05/28 08:34:45;;;;;;;8.20;3.70;;;;;;;19.72;37.50;100198.16;5053426;28;20382;-60
2021/05/28 08:37:10;;;;;;;10.07;3.78;;;;;;;20.39;36.80;100195.84;5052240;28;20033;-60
2021/05/28 08:39:36;;;;;;;6.78;3.08;;;;;;;21.36;36.65;100199.56;5052832;28;20032;-60
2021/05/28 08:42:01;;;;;;;7.30;3.28;;;;;;;18.85;41.41;100190.28;5052774;28;20123;-60
2021/05/28 08:44:27;;;;;;;6.50;3.38;;;;;;;18.92;41.44;100196.22;5035424;28;20029;-60
2021/05/28 08:46:53;;;;;;;6.22;3.58;;;;;;;19.59;39.72;100203.09;5052764;28;20098;-60
2021/05/28 08:49:19;;;;;;;7.05;3.30;;;;;;;18.41;42.41;100196.22;5053351;28;20036;-60
2021/05/28 08:51:45;;;;;;;7.97;3.15;;;;;;;17.52;44.20;100198.16;5052862;28;20033;-60
2021/05/28 08:54:10;;;;;;;8.45;3.50;;;;;;;18.44;42.34;100201.09;5053201;28;20387;-60
2021/05/28 08:56:36;;;;;;;11.95;3.55;;;;;;;20.54;37.76;100200.34;5052436;28;20033;-60
2021/05/28 08:59:03;;;;;;;8.30;3.83;;;;;;;19.94;38.06;100192.34;5052870;28;20044;-60
2021/05/28 09:01:29;;;;;;;6.20;3.30;;;;;;;20.43;39.17;100188.75;5052394;28;20103;-60
2021/05/28 09:04:01;;;;;;;7.20;3.55;;;;;;;18.91;42.19;100179.09;5052965;28;20463;-60
2021/05/28 09:06:41;;;;;;;9.30;3.53;;;;;;;17.81;45.88;100176.88;5052478;28;20040;-60
2021/05/28 09:09:10;;;;;;;6.63;3.40;;;;;;;17.29;46.03;100178.53;5052863;28;20040;-60
2021/05/28 09:12:00;;;;;;;7.90;3.60;;;;;;;20.28;39.48;100189.66;5052487;28;20544;-60
2021/05/28 09:14:40;;;;;;;5.35;3.13;;;;;;;19.23;41.70;100182.56;5052721;28;20037;-60
2021/05/28 09:17:06;;;;;;;8.15;3.10;;;;;;;17.44;45.06;100184.03;5052101;28;20072;-60
2021/05/28 09:19:34;;;;;;;5.72;3.08;;;;;;;18.86;41.19;100179.13;5052686;28;20025;-60
2021/05/28 09:22:10;;;;;;;5.88;2.90;;;;;;;16.93;46.81;100177.53;5052257;28;20037;-60
2021/05/28 09:24:36;;;;;;;5.78;2.70;;;;;;;19.76;38.92;100185.63;5052893;28;20029;-60
2021/05/28 09:27:24;;;;;;;8.02;2.88;;;;;;;18.73;39.55;100183.19;5034310;28;20041;-60
2021/05/28 09:29:58;;;;;;;7.00;2.70;;;;;;;18.52;40.27;100176.13;5052527;28;20259;-60
2021/05/28 09:32:23;;;;;;;5.72;2.42;;;;;;;20.17;36.59;100188.13;5052052;28;20179;-60
2021/05/28 09:34:49;;;;;;;6.60;2.67;;;;;;;19.90;37.50;100177.69;5052269;28;20146;-60
2021/05/28 09:37:14;;;;;;;6.70;2.85;;;;;;;18.22;40.12;100176.94;5034104;28;20037;-60
2021/05/28 09:39:40;;;;;;;6.45;2.65;;;;;;;17.63;43.21;100178.94;5052847;28;20025;-59
2021/05/28 09:42:06;;;;;;;5.55;2.53;;;;;;;17.89;43.03;100174.44;5052290;28;20037;-62
2021/05/28 09:44:32;;;;;;;5.30;2.40;;;;;;;18.77;42.34;100171.78;5034651;28;20039;-60
2021/05/28 09:47:06;;;;;;;5.13;2.40;;;;;;;18.43;41.87;100181.28;5051997;28;20091;-61
2021/05/28 09:49:42;;;;;;;4.80;2.50;;;;;;;17.91;41.25;100181.50;5054198;28;20468;-61
2021/05/28 09:52:14;;;;;;;5.63;2.60;;;;;;;16.18;42.86;100183.69;5056000;28;20033;-60
2021/05/28 09:55:01;;;;;;;5.55;2.28;;;;;;;18.20;41.60;100179.94;5055932;28;20033;-60
2021/05/28 09:57:39;;;;;;;8.00;2.17;;;;;;;19.28;39.30;100177.94;5055803;28;20419;-60
2021/05/28 10:00:09;;;;;;;5.75;2.08;;;;;;;17.56;41.32;100180.28;5055879;28;20025;-60
2021/05/28 10:02:40;;;;;;;11.77;2.67;;;;;;;16.15;44.63;100177.97;5056395;28;20041;-61
2021/05/28 10:05:06;;;;;;;5.32;2.50;;;;;;;16.90;42.11;100167.22;5055816;28;20056;-61
2021/05/28 10:07:32;;;;;;;3.60;2.15;;;;;;;17.95;41.52;100166.34;5038428;28;20036;-60
2021/05/28 10:09:57;;;;;;;4.80;2.10;;;;;;;17.62;42.21;100179.22;5038340;28;20025;-61
2021/05/28 10:12:23;;;;;;;5.47;2.45;;;;;;;17.76;41.77;100174.94;5055703;28;20029;-61
2021/05/28 10:14:49;;;;;;;6.28;2.40;;;;;;;18.38;41.84;100169.63;5056072;28;20035;-62
2021/05/28 10:17:16;;;;;;;5.32;2.20;;;;;;;18.37;40.76;100162.56;5037527;28;20048;-59
2021/05/28 10:19:41;;;;;;;6.50;2.70;;;;;;;18.89;38.27;100159.53;5055795;28;20025;-60
2021/05/28 10:22:07;;;;;;;5.47;2.00;;;;;;;20.17;37.02;100166.34;5037805;28;20029;-59
2021/05/28 10:24:32;;;;;;;4.32;2.10;;;;;;;20.76;36.83;100168.03;5055740;28;20025;-60
2021/05/28 10:26:58;;;;;;;4.30;1.88;;;;;;;20.74;34.91;100159.34;5055232;28;20551;-60
2021/05/28 10:29:26;;;;;;;4.88;2.00;;;;;;;19.59;38.06;100153.31;5021959;28;20025;-60
2021/05/28 10:31:58;;;;;;;4.03;2.08;;;;;;;19.41;38.62;100160.22;5055656;28;20040;-60
2021/05/28 10:34:25;;;;;;;5.32;2.00;;;;;;;17.81;39.91;100155.97;5055953;28;20029;-60
2021/05/28 10:36:51;;;;;;;3.20;1.95;;;;;;;19.02;36.99;100157.34;5055138;28;20044;-60
2021/05/28 10:39:17;;;;;;;9.38;2.22;;;;;;;20.22;35.64;100155.44;5055448;28;20037;-60
2021/05/28 10:41:44;;;;;;;8.73;2.03;;;;;;;21.10;34.49;100159.00;5054967;28;20033;-60
2021/05/28 10:44:19;;;;;;;4.63;2.00;;;;;;;18.42;36.54;100149.81;5055401;28;20035;-60
2021/05/28 10:46:53;;;;;;;4.13;2.10;;;;;;;19.23;36.12;100153.50;5054788;28;20064;-60
2021/05/28 10:49:19;;;;;;;10.00;1.90;;;;;;;19.14;38.15;100145.09;5055140;28;20029;-60
2021/05/28 10:51:44;;;;;;;4.30;2.28;;;;;;;19.24;37.82;100149.66;5054116;28;20550;-60
2021/05/28 10:54:10;;;;;;;7.50;2.10;;;;;;;19.52;36.57;100150.94;5055175;28;20021;-61
2021/05/28 10:56:35;;;;;;;5.68;2.00;;;;;;;19.26;38.24;100144.78;5054525;28;20095;-61
2021/05/28 10:59:15;;;;;;;4.03;1.85;;;;;;;19.46;36.56;100146.59;5055292;28;20021;-61
2021/05/28 11:01:47;;;;;;;4.80;1.73;;;;;;;17.68;39.85;100141.00;5035802;28;20345;-61
2021/05/28 11:04:17;;;;;;;3.90;1.70;;;;;;;19.57;36.26;100142.75;5054994;28;20021;-61
2021/05/28 11:07:04;;;;;;;5.85;2.05;;;;;;;18.05;37.69;100137.31;5036613;28;20098;-61
2021/05/28 11:09:36;;;;;;;4.38;1.70;;;;;;;19.17;37.02;100132.88;5037134;28;20029;-61
2021/05/28 11:12:11;;;;;;;3.47;1.85;;;;;;;18.23;36.29;100125.13;5036713;28;20037;-61
2021/05/28 11:14:39;;;;;;;2.45;1.75;;;;;;;19.08;37.51;100124.47;5038334;28;20029;-61
2021/05/28 11:17:04;;;;;;;6.47;2.10;;;;;;;19.05;37.69;100127.75;5053954;28;20445;-61
2021/05/28 11:19:32;;;;;;;2.88;1.70;;;;;;;18.47;35.46;100124.56;5054820;28;20108;-61
2021/05/28 11:21:59;;;;;;;6.22;1.65;;;;;;;18.66;37.01;100122.91;5054080;28;20479;-61
2021/05/28 11:24:46;;;;;;;3.38;1.77;;;;;;;18.90;35.54;100119.66;5054836;28;20443;-61